createdAt,value
2019-03-27T00:01:32.117Z,6.17
2019-03-27T00:03:59.838Z,7.83
2019-03-27T00:06:27.967Z,8.20
2019-03-27T00:08:56.382Z,7.87
2019-03-27T00:11:24.514Z,7.72
2019-03-27T00:13:52.486Z,7.15
2019-03-27T00:16:20.906Z,8.83
2019-03-27T00:18:48.782Z,7.33
2019-03-27T00:21:16.516Z,8.25
2019-03-27T00:23:44.299Z,8.15
2019-03-27T00:26:12.385Z,7.62
2019-03-27T00:28:40.010Z,7.80
2019-03-27T00:31:07.947Z,7.33
2019-03-27T00:33:35.969Z,7.95
2019-03-27T00:36:03.707Z,6.97
2019-03-27T00:38:31.758Z,7.78
2019-03-27T00:40:59.506Z,8.25
2019-03-27T00:43:27.931Z,7.80
2019-03-27T00:45:56.027Z,7.83
2019-03-27T00:48:24.118Z,7.53
2019-03-27T00:50:52.134Z,7.50
2019-03-27T00:53:20.218Z,7.33
2019-03-27T00:55:48.378Z,8.20
2019-03-27T00:58:16.414Z,6.90
2019-03-27T01:01:10.150Z,8.43
2019-03-27T01:03:38.178Z,8.10
2019-03-27T01:06:07.420Z,7.73
2019-03-27T01:08:35.173Z,8.20
2019-03-27T01:11:03.932Z,8.07
2019-03-27T01:13:32.070Z,7.70
2019-03-27T01:15:59.830Z,8.05
2019-03-27T01:18:28.211Z,7.73
2019-03-27T01:20:55.939Z,7.90
2019-03-27T01:23:23.663Z,7.57
2019-03-27T01:25:51.467Z,8.27
2019-03-27T01:28:19.264Z,7.83
2019-03-27T01:30:47.671Z,8.63
2019-03-27T01:33:15.649Z,8.10
2019-03-27T01:35:43.668Z,8.57
2019-03-27T01:38:11.730Z,7.80
2019-03-27T01:40:39.578Z,7.83
2019-03-27T01:43:07.789Z,7.43
2019-03-27T01:45:35.817Z,8.93
2019-03-27T01:48:03.613Z,8.43
2019-03-27T01:50:31.621Z,8.93
2019-03-27T01:53:00.241Z,8.33
2019-03-27T01:55:28.300Z,8.63
2019-03-27T01:57:56.387Z,9.30
2019-03-27T02:00:24.393Z,8.07
2019-03-27T02:02:53.397Z,9.33
2019-03-27T02:05:21.140Z,8.90
2019-03-27T02:07:48.913Z,9.23
2019-03-27T02:10:17.316Z,9.10
2019-03-27T02:12:45.543Z,8.17
2019-03-27T02:15:13.378Z,8.57
2019-03-27T02:17:41.468Z,9.07
2019-03-27T02:20:09.734Z,8.93
2019-03-27T02:22:37.389Z,9.37
2019-03-27T02:25:05.858Z,8.60
2019-03-27T02:27:34.325Z,9.73
2019-03-27T02:30:02.341Z,9.70
2019-03-27T02:32:30.099Z,9.60
2019-03-27T02:34:58.185Z,9.07
2019-03-27T02:37:26.617Z,9.17
2019-03-27T02:39:55.223Z,8.53
2019-03-27T02:42:23.309Z,8.47
2019-03-27T02:44:51.694Z,9.33
2019-03-27T02:47:19.434Z,9.23
2019-03-27T02:49:47.439Z,9.47
2019-03-27T02:52:15.835Z,9.63
2019-03-27T02:54:44.525Z,8.73
2019-03-27T02:57:14.070Z,8.63
2019-03-27T02:59:41.824Z,8.57
2019-03-27T03:02:09.564Z,8.53
2019-03-27T03:04:37.292Z,8.73
2019-03-27T03:07:05.610Z,9.70
2019-03-27T03:09:33.999Z,8.93
2019-03-27T03:12:01.746Z,9.77
2019-03-27T03:14:29.619Z,9.83
2019-03-27T03:16:57.733Z,9.67
2019-03-27T03:19:25.864Z,8.90
2019-03-27T03:21:54.292Z,10.47
2019-03-27T03:24:23.138Z,9.50
2019-03-27T03:26:51.743Z,9.03
2019-03-27T03:29:19.924Z,8.93
2019-03-27T03:31:47.997Z,9.20
2019-03-27T03:34:16.136Z,9.03
2019-03-27T03:36:43.910Z,9.50
2019-03-27T03:39:13.415Z,8.13
2019-03-27T03:41:41.407Z,9.97
2019-03-27T03:44:09.199Z,8.63
2019-03-27T03:46:37.263Z,9.03
2019-03-27T03:49:05.092Z,9.53
2019-03-27T03:51:33.184Z,9.67
2019-03-27T03:54:01.247Z,9.73
2019-03-27T03:56:31.063Z,8.90
2019-03-27T03:59:01.744Z,9.67
2019-03-27T04:01:31.765Z,8.23
2019-03-27T04:04:01.113Z,9.77
2019-03-27T04:06:29.224Z,9.57
2019-03-27T04:08:57.550Z,9.17
2019-03-27T04:11:25.693Z,9.57
2019-03-27T04:13:55.548Z,9.97
2019-03-27T04:16:23.933Z,9.87
2019-03-27T04:18:51.779Z,9.93
2019-03-27T04:21:19.947Z,10.37
2019-03-27T04:23:47.657Z,9.80
2019-03-27T04:26:15.437Z,10.53
2019-03-27T04:28:43.520Z,9.60
2019-03-27T04:31:11.308Z,9.83
2019-03-27T04:33:39.336Z,11.10
2019-03-27T04:36:07.713Z,11.00
2019-03-27T04:38:45.782Z,10.83
2019-03-27T04:41:14.319Z,10.67
2019-03-27T04:43:42.670Z,10.40
2019-03-27T04:46:10.397Z,10.70
2019-03-27T04:48:38.460Z,10.73
2019-03-27T04:51:06.466Z,11.20
2019-03-27T04:53:34.253Z,12.07
2019-03-27T04:56:02.287Z,11.90
2019-03-27T04:58:30.031Z,11.37
2019-03-27T05:00:57.862Z,11.67
2019-03-27T05:03:26.040Z,12.20
2019-03-27T05:05:53.706Z,11.60
2019-03-27T05:08:21.686Z,12.33
2019-03-27T05:10:50.159Z,11.73
2019-03-27T05:13:17.908Z,11.83
2019-03-27T05:15:45.634Z,11.97
2019-03-27T05:18:14.043Z,12.73
2019-03-27T05:20:42.496Z,13.00
2019-03-27T05:23:10.232Z,12.37
2019-03-27T05:25:38.037Z,12.03
2019-03-27T05:28:05.778Z,12.10
2019-03-27T05:30:33.610Z,13.27
2019-03-27T05:33:01.349Z,12.07
2019-03-27T05:35:29.833Z,12.53
2019-03-27T05:37:57.634Z,12.30
2019-03-27T05:40:25.425Z,12.27
2019-03-27T05:43:00.442Z,13.77
2019-03-27T05:45:24.081Z,12.73
2019-03-27T05:47:59.545Z,14.77
2019-03-27T05:50:22.695Z,14.60
2019-03-27T05:52:50.391Z,13.17
2019-03-27T05:55:18.328Z,14.47
2019-03-27T05:57:46.483Z,13.73
2019-03-27T06:00:16.490Z,14.80
2019-03-27T06:02:44.627Z,14.57
2019-03-27T06:05:12.679Z,13.43
2019-03-27T06:07:40.422Z,13.37
2019-03-27T06:10:08.445Z,14.77
2019-03-27T06:12:36.489Z,14.77
2019-03-27T06:15:04.454Z,13.33
2019-03-27T06:17:32.499Z,13.70
2019-03-27T06:20:01.243Z,14.30
2019-03-27T06:22:29.265Z,14.20
2019-03-27T06:24:57.103Z,15.60
2019-03-27T06:27:25.144Z,15.57
2019-03-27T06:29:53.177Z,17.13
2019-03-27T06:32:21.197Z,16.27
2019-03-27T06:34:48.905Z,16.43
2019-03-27T06:37:16.660Z,17.33
2019-03-27T06:39:44.742Z,16.73
2019-03-27T06:42:12.761Z,17.00
2019-03-27T06:44:40.843Z,17.03
2019-03-27T06:47:08.483Z,16.87
2019-03-27T06:49:36.495Z,16.30
2019-03-27T06:52:04.706Z,16.47
2019-03-27T06:54:32.415Z,18.40
2019-03-27T06:57:01.249Z,18.17
2019-03-27T06:59:30.034Z,17.10
2019-03-27T07:01:58.090Z,17.60
2019-03-27T07:04:25.868Z,16.70
2019-03-27T07:06:54.283Z,17.13
2019-03-27T07:09:22.967Z,17.13
2019-03-27T07:11:51.016Z,18.43
2019-03-27T07:14:19.113Z,17.50
2019-03-27T07:16:47.046Z,18.70
2019-03-27T07:19:15.095Z,16.80
2019-03-27T07:21:42.803Z,17.63
2019-03-27T07:24:11.226Z,16.50
2019-03-27T07:26:39.270Z,16.13
2019-03-27T07:29:07.015Z,16.90
2019-03-27T07:31:34.765Z,16.70
2019-03-27T07:34:02.896Z,16.67
2019-03-27T07:36:31.072Z,18.63
2019-03-27T07:39:10.411Z,17.77
2019-03-27T07:41:28.911Z,17.90
2019-03-27T07:43:56.662Z,18.90
2019-03-27T07:46:25.808Z,17.47
2019-03-27T07:48:54.521Z,17.85
2019-03-27T07:51:23.130Z,17.30
2019-03-27T07:53:50.996Z,18.10
2019-03-27T07:56:18.997Z,18.27
2019-03-27T07:58:48.473Z,19.73
2019-03-27T08:01:16.767Z,19.55
2019-03-27T08:03:44.529Z,19.82
2019-03-27T08:06:12.234Z,18.90
2019-03-27T08:08:40.239Z,19.92
2019-03-27T08:11:08.974Z,19.17
2019-03-27T08:13:37.171Z,20.62
2019-03-27T08:16:04.903Z,20.62
2019-03-27T08:18:32.990Z,21.45
2019-03-27T08:21:01.269Z,20.60
2019-03-27T08:23:29.668Z,21.97
2019-03-27T08:25:57.427Z,22.07
2019-03-27T08:28:25.503Z,21.55
2019-03-27T08:30:53.670Z,22.42
2019-03-27T08:33:21.503Z,22.60
2019-03-27T08:35:49.607Z,22.27
2019-03-27T08:38:17.336Z,22.82
2019-03-27T08:40:45.435Z,21.27
2019-03-27T08:43:21.296Z,21.57
2019-03-27T08:45:42.730Z,22.80
2019-03-27T08:48:10.505Z,22.20
2019-03-27T08:50:38.247Z,20.92
2019-03-27T08:53:06.028Z,20.92
2019-03-27T08:55:33.762Z,20.12
2019-03-27T08:58:02.110Z,22.22
2019-03-27T09:00:47.240Z,22.80
2019-03-27T09:03:15.411Z,21.85
2019-03-27T09:05:43.142Z,22.90
2019-03-27T09:08:10.897Z,23.47
2019-03-27T09:10:38.622Z,20.48
2019-03-27T09:13:06.358Z,21.17
2019-03-27T09:15:34.127Z,22.13
2019-03-27T09:18:01.846Z,22.58
2019-03-27T09:20:29.743Z,22.10
2019-03-27T09:22:57.711Z,21.33
2019-03-27T09:25:25.788Z,21.20
2019-03-27T09:27:53.554Z,19.75
2019-03-27T09:30:22.420Z,19.37
2019-03-27T09:32:50.526Z,19.70
2019-03-27T09:35:18.345Z,19.67
2019-03-27T09:37:46.372Z,20.40
2019-03-27T09:43:17.212Z,19.37
2019-03-27T09:45:46.047Z,22.15
2019-03-27T09:48:13.783Z,20.02
2019-03-27T09:50:42.157Z,19.82
2019-03-27T09:53:10.555Z,17.70
2019-03-27T09:55:39.122Z,19.77
2019-03-27T09:58:06.851Z,19.65
2019-03-27T10:01:09.242Z,20.17
2019-03-27T10:03:37.430Z,20.75
2019-03-27T10:06:05.951Z,21.07
2019-03-27T10:08:33.703Z,20.40
2019-03-27T10:11:01.769Z,20.90
2019-03-27T10:13:29.469Z,21.60
2019-03-27T10:15:57.585Z,23.52
2019-03-27T10:18:25.308Z,22.17
2019-03-27T10:20:53.870Z,23.73
2019-03-27T10:23:22.249Z,24.00
2019-03-27T10:25:50.330Z,26.17
2019-03-27T10:28:18.490Z,25.50
2019-03-27T10:30:46.126Z,24.65
2019-03-27T10:33:15.362Z,24.45
2019-03-27T10:35:43.653Z,25.43
2019-03-27T10:38:11.807Z,23.50
2019-03-27T10:40:40.270Z,23.98
2019-03-27T10:43:08.003Z,24.85
2019-03-27T10:45:35.771Z,25.57
2019-03-27T10:48:03.517Z,25.15
2019-03-27T10:50:31.652Z,24.77
2019-03-27T10:52:59.304Z,25.45
2019-03-27T10:55:27.319Z,23.90
2019-03-27T10:57:55.320Z,24.75
2019-03-27T11:00:23.378Z,21.80
2019-03-27T11:02:51.462Z,19.40
2019-03-27T11:05:19.197Z,21.52
2019-03-27T11:07:46.975Z,21.12
2019-03-27T11:10:14.983Z,20.60
2019-03-27T11:12:43.046Z,20.95
2019-03-27T11:15:11.445Z,19.32
2019-03-27T11:17:39.823Z,18.15
2019-03-27T11:20:08.073Z,18.60
2019-03-27T11:22:36.461Z,18.12
2019-03-27T11:25:05.751Z,18.87
2019-03-27T11:27:33.523Z,18.17
2019-03-27T11:30:01.283Z,19.87
2019-03-27T11:32:29.721Z,18.90
2019-03-27T11:34:57.695Z,17.73
2019-03-27T11:37:25.755Z,18.95
2019-03-27T11:39:54.558Z,18.02
2019-03-27T11:42:22.640Z,19.12
2019-03-27T11:44:50.381Z,17.48
2019-03-27T11:47:18.683Z,16.48
2019-03-27T11:49:46.786Z,16.20
2019-03-27T11:52:14.831Z,18.82
2019-03-27T11:54:42.948Z,19.65
2019-03-27T11:57:10.955Z,18.57
2019-03-27T11:59:38.962Z,17.77
2019-03-27T12:02:06.675Z,18.12
2019-03-27T12:04:34.693Z,17.20
2019-03-27T12:07:02.700Z,17.80
2019-03-27T12:09:30.767Z,19.02
2019-03-27T12:11:58.792Z,18.80
2019-03-27T12:14:26.795Z,17.77
2019-03-27T12:16:54.823Z,16.65
2019-03-27T12:19:22.667Z,16.15
2019-03-27T12:21:50.384Z,15.38
2019-03-27T12:24:18.128Z,16.57
2019-03-27T12:26:45.851Z,16.60
2019-03-27T12:29:13.603Z,18.07
2019-03-27T12:31:41.611Z,16.90
2019-03-27T12:34:10.387Z,17.15
2019-03-27T12:36:38.199Z,16.67
2019-03-27T12:39:06.918Z,16.82
2019-03-27T12:41:34.950Z,18.30
2019-03-27T12:44:02.825Z,18.42
2019-03-27T12:46:31.727Z,18.57
2019-03-27T12:48:59.471Z,17.65
2019-03-27T12:51:27.223Z,19.05
2019-03-27T12:53:55.469Z,18.15
2019-03-27T12:56:23.123Z,17.87
2019-03-27T12:58:51.283Z,18.90
2019-03-27T13:01:19.932Z,17.95
2019-03-27T13:03:47.816Z,18.27
2019-03-27T13:06:15.923Z,19.42
2019-03-27T13:08:43.791Z,18.23
2019-03-27T13:11:11.510Z,18.52
2019-03-27T13:13:39.996Z,19.05
2019-03-27T13:16:07.869Z,18.23
2019-03-27T13:18:37.301Z,18.15
2019-03-27T13:21:06.171Z,19.40
2019-03-27T13:23:34.934Z,17.57
2019-03-27T13:26:02.975Z,17.98
2019-03-27T13:28:31.039Z,18.32
2019-03-27T13:30:58.782Z,17.37
2019-03-27T13:33:26.410Z,17.12
2019-03-27T13:35:54.820Z,17.45
2019-03-27T13:38:23.138Z,15.65
2019-03-27T13:40:50.899Z,15.68
2019-03-27T13:43:18.944Z,14.83
2019-03-27T13:45:46.714Z,13.83
2019-03-27T13:48:14.482Z,14.87
2019-03-27T13:50:42.495Z,13.98
2019-03-27T13:53:12.384Z,13.68
2019-03-27T13:55:40.119Z,13.93
2019-03-27T13:58:07.883Z,14.60
2019-03-27T14:00:36.634Z,13.95
2019-03-27T14:03:04.382Z,12.40
2019-03-27T14:05:32.173Z,12.90
2019-03-27T14:08:00.003Z,14.20
2019-03-27T14:10:28.104Z,13.58
2019-03-27T14:12:56.606Z,14.23
2019-03-27T14:15:24.350Z,15.05
2019-03-27T14:17:52.358Z,14.40
2019-03-27T14:20:20.484Z,13.95
2019-03-27T14:22:48.219Z,14.23
2019-03-27T14:25:16.578Z,13.08
2019-03-27T14:27:45.541Z,13.68
2019-03-27T14:30:16.194Z,13.45
2019-03-27T14:32:44.294Z,14.23
2019-03-27T14:35:12.868Z,14.98
2019-03-27T14:37:40.648Z,14.53
2019-03-27T14:40:09.233Z,14.47
2019-03-27T14:42:37.297Z,14.43
2019-03-27T14:45:07.362Z,14.38
2019-03-27T14:47:35.894Z,14.70
2019-03-27T14:50:04.480Z,13.53
2019-03-27T14:52:32.214Z,13.78
2019-03-27T14:55:02.979Z,14.87
2019-03-27T14:57:31.198Z,13.28
2019-03-27T14:59:59.230Z,16.12
2019-03-27T15:02:27.376Z,15.03
2019-03-27T15:04:55.734Z,17.25
2019-03-27T15:07:23.843Z,17.27
2019-03-27T15:09:51.788Z,15.90
2019-03-27T15:12:19.530Z,16.00
2019-03-27T15:14:47.911Z,14.63
2019-03-27T15:17:15.801Z,14.35
2019-03-27T15:19:43.569Z,14.43
2019-03-27T15:22:21.729Z,14.55
2019-03-27T15:24:41.286Z,13.95
2019-03-27T15:27:09.649Z,13.75
2019-03-27T15:29:37.716Z,14.65
2019-03-27T15:32:05.640Z,14.30
2019-03-27T15:34:34.181Z,15.18
2019-03-27T15:37:01.922Z,14.93
2019-03-27T15:39:30.382Z,13.50
2019-03-27T15:41:58.918Z,14.00
2019-03-27T15:44:26.969Z,12.98
2019-03-27T15:46:55.083Z,14.18
2019-03-27T15:49:23.150Z,12.55
2019-03-27T15:51:51.535Z,15.20
2019-03-27T15:54:19.249Z,12.50
2019-03-27T15:56:47.443Z,13.88
2019-03-27T15:59:15.682Z,13.45
2019-03-27T16:01:43.761Z,13.35
2019-03-27T16:04:11.813Z,12.37
2019-03-27T16:06:39.898Z,11.90
2019-03-27T16:09:11.542Z,12.25
2019-03-27T16:11:39.321Z,11.45
2019-03-27T16:14:07.603Z,12.47
2019-03-27T16:16:35.709Z,12.65
2019-03-27T16:19:03.401Z,11.55
2019-03-27T16:21:31.419Z,12.53
2019-03-27T16:24:06.198Z,11.48
2019-03-27T16:26:29.293Z,10.43
2019-03-27T16:28:56.994Z,10.15
2019-03-27T16:31:25.355Z,10.98
2019-03-27T16:33:53.186Z,10.98
2019-03-27T16:36:21.314Z,10.88
2019-03-27T16:38:49.343Z,12.23
2019-03-27T16:41:17.080Z,10.15
2019-03-27T16:43:45.211Z,9.88
2019-03-27T16:46:13.363Z,9.75
2019-03-27T16:48:41.381Z,9.80
2019-03-27T16:51:09.756Z,9.45
2019-03-27T16:53:37.860Z,9.63
2019-03-27T16:56:05.734Z,9.78
2019-03-27T16:58:34.157Z,9.73
2019-03-27T17:01:02.761Z,9.13
2019-03-27T17:03:31.162Z,9.70
2019-03-27T17:05:58.909Z,8.80
2019-03-27T17:08:26.904Z,9.78
2019-03-27T17:10:54.650Z,8.68
2019-03-27T17:13:22.760Z,8.93
2019-03-27T17:15:50.399Z,9.48
2019-03-27T17:18:18.167Z,8.15
2019-03-27T17:20:46.274Z,8.23
2019-03-27T17:23:18.497Z,8.75
2019-03-27T17:25:45.035Z,8.75
2019-03-27T17:28:13.237Z,8.28
2019-03-27T17:30:40.976Z,8.63
2019-03-27T17:33:08.726Z,7.78
2019-03-27T17:35:36.801Z,8.53
2019-03-27T17:38:04.580Z,9.03
2019-03-27T17:40:32.311Z,9.08
2019-03-27T17:43:00.027Z,7.90
2019-03-27T17:45:28.212Z,8.35
2019-03-27T17:47:55.972Z,8.35
2019-03-27T17:50:24.029Z,9.38
2019-03-27T17:52:52.190Z,8.48
2019-03-27T17:55:19.901Z,8.23
2019-03-27T17:57:48.031Z,8.58
2019-03-27T18:00:22.848Z,9.25
2019-03-27T18:02:50.606Z,8.40
2019-03-27T18:05:18.958Z,9.13
2019-03-27T18:07:46.611Z,8.48
2019-03-27T18:10:14.730Z,8.98
2019-03-27T18:12:42.829Z,8.88
2019-03-27T18:15:10.666Z,8.48
2019-03-27T18:17:38.422Z,10.30
2019-03-27T18:20:06.423Z,8.60
2019-03-27T18:22:34.628Z,9.15
2019-03-27T18:25:02.898Z,9.23
2019-03-27T18:27:30.978Z,8.33
2019-03-27T18:29:58.695Z,8.03
2019-03-27T18:32:26.823Z,7.83
2019-03-27T18:34:54.565Z,8.33
2019-03-27T18:37:22.972Z,7.70
2019-03-27T18:39:50.776Z,7.90
2019-03-27T18:42:18.812Z,7.97
2019-03-27T18:44:46.979Z,7.95
2019-03-27T18:47:15.950Z,8.63
2019-03-27T18:49:46.210Z,7.97
2019-03-27T18:52:13.943Z,8.48
2019-03-27T18:54:41.994Z,8.88
2019-03-27T18:57:10.179Z,8.40
2019-03-27T18:59:38.519Z,8.03
2019-03-27T19:02:06.673Z,8.83
2019-03-27T19:04:35.505Z,8.83
2019-03-27T19:07:03.999Z,7.45
2019-03-27T19:09:32.290Z,8.38
2019-03-27T19:12:00.642Z,8.80
2019-03-27T19:14:28.395Z,9.70
2019-03-27T19:16:56.582Z,8.58
2019-03-27T19:19:24.973Z,8.63
2019-03-27T19:21:52.698Z,8.50
2019-03-27T19:24:20.523Z,8.60
2019-03-27T19:26:48.590Z,7.97
2019-03-27T19:29:16.755Z,9.50
2019-03-27T19:31:44.911Z,8.53
2019-03-27T19:34:13.234Z,9.58
2019-03-27T19:36:41.805Z,8.78
2019-03-27T19:39:10.058Z,9.68
2019-03-27T19:41:37.879Z,10.08
2019-03-27T19:44:06.346Z,9.80
2019-03-27T19:46:34.271Z,10.72
2019-03-27T19:49:02.102Z,9.85
2019-03-27T19:51:29.816Z,8.98
2019-03-27T19:53:57.836Z,9.13
2019-03-27T19:56:25.576Z,9.23
2019-03-27T19:58:53.299Z,9.65
2019-03-27T20:01:21.047Z,10.15
2019-03-27T20:03:49.133Z,10.43
2019-03-27T20:06:17.281Z,10.20
2019-03-27T20:08:45.855Z,11.40
2019-03-27T20:11:14.813Z,14.03
2019-03-27T20:13:42.914Z,13.78
2019-03-27T20:16:10.677Z,12.25
2019-03-27T20:18:39.006Z,11.22
2019-03-27T20:21:07.713Z,12.33
2019-03-27T20:23:35.351Z,11.93
2019-03-27T20:26:03.123Z,17.32
2019-03-27T20:28:31.534Z,21.80
2019-03-27T20:30:59.490Z,20.68
2019-03-27T20:33:27.375Z,20.35
2019-03-27T20:35:55.991Z,18.45
2019-03-27T20:38:24.334Z,15.00
2019-03-27T20:40:52.102Z,13.10
2019-03-27T20:43:20.910Z,13.58
2019-03-27T20:45:48.679Z,12.28
2019-03-27T20:48:16.470Z,11.75
2019-03-27T20:50:44.516Z,11.28
2019-03-27T20:53:12.261Z,11.65
2019-03-27T20:55:40.202Z,11.83
2019-03-27T20:58:08.295Z,12.95
2019-03-27T21:00:36.111Z,12.50
2019-03-27T21:03:03.899Z,11.15
2019-03-27T21:05:34.942Z,12.35
2019-03-27T21:08:02.362Z,12.43
2019-03-27T21:10:30.075Z,12.25
2019-03-27T21:12:58.453Z,11.73
2019-03-27T21:15:26.682Z,12.23
2019-03-27T21:17:54.425Z,11.55
2019-03-27T21:20:22.753Z,12.70
2019-03-27T21:22:51.226Z,12.07
2019-03-27T21:25:18.957Z,12.68
2019-03-27T21:27:47.294Z,11.95
2019-03-27T21:30:15.382Z,13.28
2019-03-27T21:32:43.746Z,13.03
2019-03-27T21:35:12.294Z,13.38
2019-03-27T21:37:40.632Z,12.35
2019-03-27T21:40:08.814Z,12.95
2019-03-27T21:42:36.814Z,12.53
2019-03-27T21:45:06.570Z,12.13
2019-03-27T21:47:34.766Z,11.73
2019-03-27T21:50:02.966Z,12.63
2019-03-27T21:52:31.087Z,12.40
2019-03-27T21:54:58.839Z,13.10
2019-03-27T21:57:26.973Z,12.20
2019-03-27T21:59:55.422Z,13.43
2019-03-27T22:02:23.085Z,11.83
2019-03-27T22:04:51.196Z,11.05
2019-03-27T22:07:19.447Z,11.53
2019-03-27T22:09:47.678Z,12.43
2019-03-27T22:12:15.562Z,12.47
2019-03-27T22:14:43.457Z,11.50
2019-03-27T22:17:12.882Z,12.78
2019-03-27T22:19:40.891Z,12.75
2019-03-27T22:22:09.635Z,13.00
2019-03-27T22:24:37.912Z,13.63
2019-03-27T22:27:05.630Z,13.72
2019-03-27T22:29:33.376Z,13.40
2019-03-27T22:32:01.101Z,12.80
2019-03-27T22:34:28.830Z,12.00
2019-03-27T22:36:56.835Z,12.10
2019-03-27T22:39:24.950Z,13.30
2019-03-27T22:41:52.683Z,12.35
2019-03-27T22:44:20.727Z,12.75
2019-03-27T22:46:48.471Z,11.65
2019-03-27T22:49:16.240Z,12.50
2019-03-27T22:51:44.729Z,12.57
2019-03-27T22:54:12.483Z,11.83
2019-03-27T22:56:40.963Z,11.90
2019-03-27T22:59:08.706Z,12.70
2019-03-27T23:01:43.604Z,11.67
2019-03-27T23:04:11.855Z,12.17
2019-03-27T23:06:39.691Z,12.77
2019-03-27T23:09:07.575Z,14.00
2019-03-27T23:11:35.780Z,12.03
2019-03-27T23:14:03.892Z,12.67
2019-03-27T23:16:31.745Z,14.00
2019-03-27T23:18:59.547Z,13.00
2019-03-27T23:21:27.602Z,13.30
2019-03-27T23:23:55.340Z,13.37
2019-03-27T23:26:23.417Z,12.23
2019-03-27T23:28:51.492Z,12.80
2019-03-27T23:31:19.208Z,12.50
2019-03-27T23:33:46.987Z,12.63
2019-03-27T23:36:14.815Z,12.87
2019-03-27T23:38:45.106Z,13.23
2019-03-27T23:41:16.136Z,13.90
2019-03-27T23:43:46.087Z,13.27
2019-03-27T23:46:15.596Z,12.10
2019-03-27T23:48:43.698Z,13.00
2019-03-27T23:51:11.513Z,14.20
2019-03-27T23:53:39.319Z,12.87
2019-03-27T23:56:16.463Z,14.33
2019-03-27T23:58:37.033Z,13.23
